createdAt,value
2019-06-11T00:00:18.502Z,36.03
2019-06-11T00:02:47.966Z,29.85
2019-06-11T00:05:16.506Z,33.75
2019-06-11T00:07:46.432Z,34.78
2019-06-11T00:10:14.513Z,30.30
2019-06-11T00:12:49.430Z,30.95
2019-06-11T00:15:18.785Z,27.90
2019-06-11T00:17:52.547Z,31.93
2019-06-11T00:20:22.848Z,30.27
2019-06-11T00:22:54.670Z,30.25
2019-06-11T00:25:25.211Z,30.48
2019-06-11T00:27:53.755Z,31.42
2019-06-11T00:30:24.803Z,30.90
2019-06-11T00:32:53.647Z,30.85
2019-06-11T00:35:24.706Z,30.57
2019-06-11T00:37:53.132Z,29.77
2019-06-11T00:40:24.638Z,31.33
2019-06-11T00:42:54.318Z,31.90
2019-06-11T00:45:25.339Z,31.93
2019-06-11T00:48:03.075Z,32.95
2019-06-11T00:50:33.254Z,31.40
2019-06-11T00:53:03.439Z,29.85
2019-06-11T00:55:38.670Z,32.17
2019-06-11T00:58:14.927Z,30.65
2019-06-11T01:00:42.962Z,32.53
2019-06-11T01:03:12.262Z,32.90
2019-06-11T01:05:43.776Z,36.00
2019-06-11T01:08:13.962Z,34.08
2019-06-11T01:10:45.545Z,33.78
2019-06-11T01:13:15.358Z,33.48
2019-06-11T01:15:46.747Z,37.38
2019-06-11T01:18:18.004Z,34.18
2019-06-11T01:20:46.274Z,33.90
2019-06-11T01:23:16.707Z,35.17
2019-06-11T01:25:48.266Z,38.88
2019-06-11T01:28:17.025Z,36.88
2019-06-11T01:30:46.083Z,39.10
2019-06-11T01:33:20.296Z,40.12
2019-06-11T01:35:45.756Z,43.90
2019-06-11T01:38:14.615Z,41.00
2019-06-11T01:40:44.590Z,42.48
2019-06-11T01:43:19.422Z,43.85
2019-06-11T01:45:49.233Z,44.85
2019-06-11T01:48:22.871Z,44.25
2019-06-11T01:50:53.227Z,46.08
2019-06-11T01:53:23.904Z,41.92
2019-06-11T01:55:53.377Z,48.13
2019-06-11T01:58:23.483Z,46.53
2019-06-11T02:00:54.807Z,47.23
2019-06-11T02:03:37.379Z,48.68
2019-06-11T02:05:52.748Z,52.17
2019-06-11T02:08:32.718Z,48.28
2019-06-11T02:11:02.299Z,50.98
2019-06-11T02:13:33.330Z,52.00
2019-06-11T02:16:04.043Z,49.45
2019-06-11T02:18:36.398Z,54.27
2019-06-11T02:21:04.828Z,54.23
2019-06-11T02:23:35.479Z,51.45
2019-06-11T02:26:07.232Z,51.45
2019-06-11T02:28:35.744Z,51.00
2019-06-11T02:31:06.857Z,50.60
2019-06-11T02:34:03.693Z,49.73
2019-06-11T02:36:09.182Z,52.48
2019-06-11T02:38:41.870Z,51.88
2019-06-11T02:41:17.330Z,53.30
2019-06-11T02:44:04.654Z,49.88
2019-06-11T02:46:36.008Z,49.30
2019-06-11T02:49:07.400Z,57.85
2019-06-11T02:51:36.513Z,53.28
2019-06-11T02:54:04.387Z,56.70
2019-06-11T02:56:33.656Z,51.28
2019-06-11T02:59:02.856Z,49.60
2019-06-11T03:01:36.774Z,48.90
2019-06-11T03:04:26.246Z,56.92
2019-06-11T03:06:42.000Z,54.40
2019-06-11T03:09:16.257Z,56.25
2019-06-11T03:11:45.528Z,56.30
2019-06-11T03:14:18.533Z,52.35
2019-06-11T03:16:45.309Z,59.48
2019-06-11T03:19:21.628Z,58.13
2019-06-11T03:21:52.243Z,60.80
2019-06-11T03:24:28.215Z,55.10
2019-06-11T03:26:53.107Z,58.63
2019-06-11T03:29:27.226Z,60.00
2019-06-11T03:32:31.610Z,61.45
2019-06-11T03:35:35.938Z,60.15
2019-06-11T03:37:21.531Z,62.13
2019-06-11T03:39:41.137Z,64.70
2019-06-11T03:41:53.894Z,67.08
2019-06-11T03:44:30.561Z,62.85
2019-06-11T03:46:54.583Z,63.65
2019-06-11T03:49:28.806Z,63.55
2019-06-11T03:51:54.752Z,60.88
2019-06-11T03:54:27.702Z,63.17
2019-06-11T03:56:53.882Z,66.57
2019-06-11T03:59:28.757Z,69.42
2019-06-11T04:01:53.712Z,70.95
2019-06-11T04:04:35.736Z,71.77
2019-06-11T04:07:15.476Z,64.25
2019-06-11T04:09:34.948Z,58.65
2019-06-11T04:12:01.897Z,56.08
2019-06-11T04:14:34.367Z,60.98
2019-06-11T04:17:17.909Z,52.25
2019-06-11T04:19:36.673Z,59.45
2019-06-11T04:22:11.292Z,59.38
2019-06-11T04:27:33.498Z,54.77
2019-06-11T04:30:13.536Z,54.80
2019-06-11T04:32:36.794Z,53.25
2019-06-11T04:35:12.104Z,52.45
2019-06-11T04:38:01.289Z,52.05
2019-06-11T04:40:11.203Z,48.45
2019-06-11T04:42:37.821Z,44.27
2019-06-11T04:45:06.301Z,45.45
2019-06-11T04:47:44.438Z,42.25
2019-06-11T04:50:11.935Z,45.73
2019-06-11T04:52:41.710Z,48.23
2019-06-11T04:55:12.035Z,48.40
2019-06-11T04:57:41.487Z,48.98
2019-06-11T05:01:00.693Z,53.40
2019-06-11T05:05:38.675Z,46.25
2019-06-11T05:08:15.133Z,53.38
2019-06-11T05:10:46.021Z,48.65
2019-06-11T05:13:11.876Z,51.15
2019-06-11T05:15:42.770Z,52.48
2019-06-11T05:18:14.366Z,55.78
2019-06-11T05:20:42.550Z,52.78
2019-06-11T05:23:11.882Z,55.75
2019-06-11T05:25:54.472Z,54.55
2019-06-11T05:28:11.275Z,57.95
2019-06-11T05:30:44.063Z,58.98
2019-06-11T05:33:11.228Z,57.60
2019-06-11T05:35:40.642Z,55.35
2019-06-11T05:38:17.787Z,54.35
2019-06-11T05:40:37.482Z,51.88
2019-06-11T05:43:05.321Z,55.48
2019-06-11T05:45:36.877Z,53.02
2019-06-11T05:48:02.706Z,53.28
2019-06-11T05:50:34.002Z,52.98
2019-06-11T05:53:01.299Z,53.98
2019-06-11T05:55:31.902Z,52.85
2019-06-11T05:58:01.078Z,52.58
2019-06-11T06:00:31.052Z,53.28
2019-06-11T06:03:01.039Z,52.43
2019-06-11T06:05:28.387Z,54.77
2019-06-11T06:08:12.179Z,52.75
2019-06-11T06:10:27.836Z,55.90
2019-06-11T06:12:55.945Z,51.63
2019-06-11T06:15:24.804Z,50.20
2019-06-11T06:17:53.321Z,53.30
2019-06-11T06:20:22.010Z,53.95
2019-06-11T06:22:50.206Z,52.30
2019-06-11T06:25:18.179Z,54.33
2019-06-11T06:27:46.061Z,53.87
2019-06-11T06:30:14.285Z,53.95
2019-06-11T06:32:42.098Z,58.02
2019-06-11T06:35:11.908Z,60.58
2019-06-11T06:37:40.230Z,52.62
2019-06-11T06:40:10.344Z,61.25
2019-06-11T06:42:40.411Z,52.98
2019-06-11T06:45:08.159Z,58.23
2019-06-11T06:47:35.950Z,60.30
2019-06-11T06:50:04.312Z,56.30
2019-06-11T06:52:34.599Z,54.70
2019-06-11T06:55:01.705Z,55.25
2019-06-11T06:57:31.849Z,54.20
2019-06-11T07:00:00.284Z,55.52
2019-06-11T07:02:30.621Z,55.48
2019-06-11T07:04:58.002Z,55.40
2019-06-11T07:07:26.662Z,55.63
2019-06-11T07:09:54.605Z,56.13
2019-06-11T07:12:22.412Z,59.08
2019-06-11T07:14:50.682Z,55.92
2019-06-11T07:17:20.728Z,56.85
2019-06-11T07:19:50.822Z,55.67
2019-06-11T07:22:20.731Z,62.03
2019-06-11T07:24:47.330Z,58.85
2019-06-11T07:27:15.175Z,58.58
2019-06-11T07:29:44.701Z,57.33
2019-06-11T07:32:12.628Z,56.10
2019-06-11T07:34:46.898Z,57.40
2019-06-11T07:37:11.666Z,50.90
2019-06-11T07:39:44.700Z,53.02
2019-06-11T07:42:11.266Z,45.50
2019-06-11T07:44:42.739Z,49.20
2019-06-11T07:47:11.192Z,45.35
2019-06-11T07:49:39.397Z,42.60
2019-06-11T07:52:07.406Z,45.30
2019-06-11T07:54:37.545Z,46.08
2019-06-11T07:57:09.899Z,46.13
2019-06-11T07:59:36.151Z,43.98
2019-06-11T08:02:04.231Z,43.40
2019-06-11T08:04:34.515Z,44.33
2019-06-11T08:07:01.765Z,42.60
2019-06-11T08:12:03.804Z,42.08
2019-06-11T08:13:35.286Z,41.42
2019-06-11T08:14:35.252Z,42.78
2019-06-11T08:17:02.127Z,42.93
2019-06-11T08:19:38.494Z,45.33
2019-06-11T08:22:20.973Z,45.45
2019-06-11T08:24:29.007Z,43.50
2019-06-11T08:29:26.593Z,44.77
2019-06-11T08:31:54.421Z,43.02
2019-06-11T08:34:22.854Z,44.33
2019-06-11T08:36:50.914Z,43.80
2019-06-11T08:39:20.771Z,43.42
2019-06-11T08:41:50.914Z,39.00
2019-06-11T08:44:17.994Z,47.60
2019-06-11T08:46:47.280Z,42.67
2019-06-11T08:49:15.386Z,40.92
2019-06-11T08:51:44.203Z,42.08
2019-06-11T08:54:12.842Z,40.83
2019-06-11T08:56:42.866Z,42.25
2019-06-11T08:59:10.495Z,42.62
2019-06-11T09:01:41.682Z,41.18
2019-06-11T09:04:08.107Z,44.98
2019-06-11T09:06:37.315Z,45.78
2019-06-11T09:09:07.462Z,42.27
2019-06-11T09:11:35.611Z,42.00
2019-06-11T09:14:03.646Z,45.00
2019-06-11T09:16:31.578Z,43.85
2019-06-11T09:19:01.664Z,43.60
2019-06-11T09:21:30.981Z,43.85
2019-06-11T09:24:00.853Z,47.40
2019-06-11T09:26:30.425Z,44.18
2019-06-11T09:29:00.687Z,43.28
2019-06-11T09:31:30.132Z,45.55
2019-06-11T09:33:57.425Z,49.18
2019-06-11T09:36:25.254Z,50.45
2019-06-11T09:38:54.579Z,50.33
2019-06-11T09:41:22.824Z,48.73
2019-06-11T09:43:55.372Z,47.45
2019-06-11T09:46:21.214Z,50.58
2019-06-11T09:48:53.326Z,49.05
2019-06-11T09:51:21.493Z,53.23
2019-06-11T09:53:51.310Z,49.95
2019-06-11T09:56:18.267Z,53.63
2019-06-11T09:58:46.205Z,51.10
2019-06-11T10:01:15.877Z,50.70
2019-06-11T10:03:44.410Z,57.98
2019-06-11T10:06:13.353Z,52.48
2019-06-11T10:08:43.883Z,53.95
2019-06-11T10:11:40.033Z,48.58
2019-06-11T10:13:42.442Z,48.87
2019-06-11T10:16:11.769Z,51.40
2019-06-11T10:18:40.478Z,52.90
2019-06-11T10:21:10.748Z,46.92
2019-06-11T10:23:40.524Z,49.23
2019-06-11T10:26:07.802Z,52.90
2019-06-11T10:28:35.659Z,56.42
2019-06-11T10:31:03.595Z,59.03
2019-06-11T10:33:34.531Z,61.60
2019-06-11T10:36:01.378Z,56.40
2019-06-11T10:38:29.228Z,58.05
2019-06-11T10:41:04.906Z,57.55
2019-06-11T10:43:30.464Z,53.55
2019-06-11T10:46:01.315Z,56.63
2019-06-11T10:48:27.993Z,59.50
2019-06-11T10:50:55.914Z,61.48
2019-06-11T10:53:24.089Z,60.28
2019-06-11T10:55:55.264Z,61.10
2019-06-11T10:58:21.822Z,57.88
2019-06-11T11:00:51.234Z,59.20
2019-06-11T11:03:20.428Z,57.33
2019-06-11T11:05:50.040Z,57.08
2019-06-11T11:08:20.402Z,56.02
2019-06-11T11:10:47.661Z,55.78
2019-06-11T11:13:15.552Z,51.02
2019-06-11T11:15:43.453Z,51.23
2019-06-11T11:18:13.025Z,49.77
2019-06-11T11:20:41.157Z,50.15
2019-06-11T11:23:10.737Z,53.98
2019-06-11T11:25:41.225Z,50.38
2019-06-11T11:28:19.093Z,48.02
2019-06-11T11:30:40.680Z,51.92
2019-06-11T11:33:08.051Z,45.65
2019-06-11T11:35:35.997Z,52.40
2019-06-11T11:38:05.117Z,48.15
2019-06-11T11:40:36.312Z,50.92
2019-06-11T11:43:04.842Z,54.03
2019-06-11T11:45:32.778Z,47.90
2019-06-11T11:48:03.350Z,47.80
2019-06-11T11:50:32.499Z,48.87
2019-06-11T11:53:02.096Z,49.00
2019-06-11T11:55:31.497Z,45.55
2019-06-11T11:58:01.302Z,47.67
2019-06-11T12:00:36.128Z,40.43
2019-06-11T12:03:04.965Z,42.50
2019-06-11T12:05:33.002Z,41.88
2019-06-11T12:08:01.207Z,40.12
2019-06-11T12:10:30.556Z,43.23
2019-06-11T12:13:03.730Z,43.80
2019-06-11T12:15:31.046Z,45.20
2019-06-11T12:17:59.211Z,43.70
2019-06-11T12:20:27.478Z,41.63
2019-06-11T12:23:00.773Z,43.20
2019-06-11T12:25:36.125Z,42.33
2019-06-11T12:27:57.605Z,38.98
2019-06-11T12:30:24.071Z,36.55
2019-06-11T12:32:53.957Z,42.78
2019-06-11T12:35:21.489Z,45.08
2019-06-11T12:37:51.709Z,41.92
2019-06-11T12:40:19.249Z,42.03
2019-06-11T12:42:47.084Z,41.63
2019-06-11T12:45:14.977Z,43.50
2019-06-11T12:47:42.845Z,40.58
2019-06-11T12:50:11.543Z,40.78
2019-06-11T12:52:40.932Z,43.50
2019-06-11T12:55:11.193Z,39.63
2019-06-11T12:57:43.027Z,39.63
2019-06-11T13:00:09.997Z,38.55
2019-06-11T13:02:40.907Z,39.05
2019-06-11T13:05:10.677Z,39.20
2019-06-11T13:07:41.896Z,38.63
2019-06-11T13:10:07.963Z,38.63
2019-06-11T13:12:35.819Z,41.23
2019-06-11T13:15:05.091Z,35.08
2019-06-11T13:17:33.268Z,35.15
2019-06-11T13:20:04.342Z,38.63
2019-06-11T13:22:30.793Z,36.42
2019-06-11T13:24:59.956Z,38.67
2019-06-11T13:27:30.508Z,35.55
2019-06-11T13:29:59.274Z,37.13
2019-06-11T13:32:27.451Z,36.03
2019-06-11T13:34:57.799Z,36.13
2019-06-11T13:37:25.347Z,37.33
2019-06-11T13:39:53.828Z,36.00
2019-06-11T13:42:21.772Z,37.60
2019-06-11T13:44:51.244Z,33.03
2019-06-11T13:47:20.413Z,30.62
2019-06-11T13:49:48.393Z,30.20
2019-06-11T13:52:16.307Z,30.40
2019-06-11T13:54:44.133Z,31.07
2019-06-11T13:57:15.335Z,31.80
2019-06-11T13:59:41.576Z,31.52
2019-06-11T14:02:11.835Z,32.23
2019-06-11T14:04:40.152Z,33.37
2019-06-11T14:07:08.313Z,29.80
2019-06-11T14:09:36.158Z,33.67
2019-06-11T14:12:05.806Z,32.77
2019-06-11T14:14:35.608Z,32.40
2019-06-11T14:17:07.179Z,32.57
2019-06-11T14:19:33.038Z,33.47
2019-06-11T14:22:05.813Z,32.98
2019-06-11T14:24:31.474Z,34.00
2019-06-11T14:27:02.109Z,31.23
2019-06-11T14:29:31.864Z,31.25
2019-06-11T14:32:02.193Z,31.47
2019-06-11T14:34:28.550Z,32.80
2019-06-11T14:37:00.734Z,33.20
2019-06-11T14:39:27.441Z,32.10
2019-06-11T14:41:55.364Z,31.53
2019-06-11T14:44:34.402Z,33.80
2019-06-11T14:46:52.898Z,32.07
2019-06-11T14:49:21.741Z,32.60
2019-06-11T14:51:51.215Z,32.80
2019-06-11T14:54:21.453Z,30.17
2019-06-11T14:56:50.364Z,35.20
2019-06-11T14:59:20.100Z,35.90
2019-06-11T15:01:48.236Z,37.07
2019-06-11T15:04:16.107Z,34.98
2019-06-11T15:06:43.963Z,34.37
2019-06-11T15:09:14.336Z,33.90
2019-06-11T15:11:43.428Z,33.38
2019-06-11T15:14:13.980Z,31.52
2019-06-11T15:16:41.378Z,28.43
2019-06-11T15:19:14.156Z,30.33
2019-06-11T15:21:41.049Z,29.63
2019-06-11T15:24:13.455Z,30.67
2019-06-11T15:26:38.206Z,28.87
2019-06-11T15:29:07.323Z,28.17
2019-06-11T15:31:35.642Z,29.23
2019-06-11T15:34:05.485Z,28.10
2019-06-11T15:36:33.570Z,26.60
2019-06-11T15:39:04.015Z,29.60
2019-06-11T15:41:31.922Z,29.63
2019-06-11T15:44:01.136Z,26.67
2019-06-11T15:46:30.127Z,28.90
2019-06-11T15:48:58.272Z,28.73
2019-06-11T15:51:26.130Z,27.63
2019-06-11T15:53:53.986Z,27.13
2019-06-11T15:56:36.264Z,28.40
2019-06-11T15:58:51.433Z,26.37
2019-06-11T16:01:22.503Z,25.80
2019-06-11T16:03:51.350Z,25.10
2019-06-11T16:06:25.786Z,24.27
2019-06-11T16:08:51.154Z,24.07
2019-06-11T16:11:19.747Z,24.27
2019-06-11T16:13:47.491Z,23.53
2019-06-11T16:16:22.267Z,24.90
2019-06-11T16:18:45.581Z,25.63
2019-06-11T16:21:16.659Z,24.92
2019-06-11T16:23:47.088Z,22.50
2019-06-11T16:26:16.502Z,23.33
2019-06-11T16:28:42.396Z,24.17
2019-06-11T16:31:12.317Z,22.60
2019-06-11T16:33:41.857Z,23.20
2019-06-11T16:36:12.735Z,23.73
2019-06-11T16:38:40.123Z,23.90
2019-06-11T16:41:10.442Z,22.80
2019-06-11T16:43:40.512Z,25.40
2019-06-11T16:46:14.101Z,25.07
2019-06-11T16:48:38.157Z,26.60
2019-06-11T16:51:12.246Z,26.70
2019-06-11T16:53:41.326Z,25.60
2019-06-11T16:56:13.435Z,25.10
2019-06-11T16:58:41.595Z,23.93
2019-06-11T17:01:14.092Z,26.10
2019-06-11T17:03:41.094Z,24.63
2019-06-11T17:06:10.159Z,23.50
2019-06-11T17:08:40.596Z,21.90
2019-06-11T17:11:13.871Z,23.02
2019-06-11T17:13:45.510Z,20.03
2019-06-11T17:16:27.264Z,21.27
2019-06-11T17:18:43.526Z,23.40
2019-06-11T17:21:16.315Z,23.47
2019-06-11T17:23:45.100Z,21.30
2019-06-11T17:26:24.346Z,21.00
2019-06-11T17:28:50.290Z,21.20
2019-06-11T17:31:22.164Z,22.87
2019-06-11T17:33:51.525Z,22.15
2019-06-11T17:36:27.815Z,22.82
2019-06-11T17:38:52.981Z,23.53
2019-06-11T17:41:29.158Z,23.70
2019-06-11T17:43:53.314Z,23.67
2019-06-11T17:46:36.644Z,22.17
2019-06-11T17:48:57.058Z,24.80
2019-06-11T17:51:25.054Z,24.50
2019-06-11T17:53:52.913Z,24.67
2019-06-11T17:56:23.120Z,23.80
2019-06-11T17:58:52.665Z,24.37
2019-06-11T18:01:22.827Z,24.47
2019-06-11T18:03:52.133Z,25.70
2019-06-11T18:06:27.981Z,26.23
2019-06-11T18:08:56.438Z,26.12
2019-06-11T18:11:25.978Z,25.17
2019-06-11T18:13:56.798Z,27.13
2019-06-11T18:16:25.099Z,27.43
2019-06-11T18:18:57.654Z,27.95
2019-06-11T18:21:27.345Z,26.25
2019-06-11T18:24:00.820Z,26.97
2019-06-11T18:26:31.794Z,27.90
2019-06-11T18:29:00.407Z,27.07
2019-06-11T18:31:33.492Z,31.23
2019-06-11T18:34:00.772Z,27.02
2019-06-11T18:36:33.392Z,28.47
2019-06-11T18:39:03.554Z,28.70
2019-06-11T18:41:33.351Z,28.95
2019-06-11T18:44:01.366Z,27.42
2019-06-11T18:46:32.344Z,28.90
2019-06-11T18:49:03.232Z,25.82
2019-06-11T18:51:36.293Z,27.73
2019-06-11T18:54:04.458Z,28.73
2019-06-11T18:56:34.237Z,26.70
2019-06-11T18:59:02.668Z,24.60
2019-06-11T19:01:34.753Z,26.42
2019-06-11T19:04:04.865Z,28.55
2019-06-11T19:06:34.896Z,26.27
2019-06-11T19:09:05.540Z,28.02
2019-06-11T19:11:34.106Z,28.38
2019-06-11T19:14:28.120Z,29.60
2019-06-11T19:17:23.029Z,27.45
2019-06-11T19:19:41.266Z,27.87
2019-06-11T19:22:13.537Z,27.83
2019-06-11T19:24:45.364Z,27.17
2019-06-11T19:27:15.197Z,26.52
2019-06-11T19:29:45.680Z,26.87
2019-06-11T19:32:16.313Z,25.15
2019-06-11T19:34:45.202Z,26.25
2019-06-11T19:37:13.506Z,29.82
2019-06-11T19:39:41.600Z,32.15
2019-06-11T19:42:10.675Z,33.20
2019-06-11T19:44:44.075Z,29.35
2019-06-11T19:47:10.640Z,25.90
2019-06-11T19:49:40.642Z,27.32
2019-06-11T19:52:10.747Z,27.37
2019-06-11T19:54:37.971Z,26.60
2019-06-11T19:57:05.847Z,26.12
2019-06-11T19:59:34.894Z,25.75
2019-06-11T20:02:03.057Z,25.43
2019-06-11T20:04:31.984Z,24.45
2019-06-11T20:07:01.338Z,25.95
2019-06-11T20:09:32.288Z,25.82
2019-06-11T20:12:00.960Z,28.23
2019-06-11T20:14:33.768Z,27.90
2019-06-11T20:17:00.684Z,26.52
2019-06-11T20:19:30.922Z,33.85
2019-06-11T20:21:57.983Z,27.87
2019-06-11T20:24:27.210Z,29.30
2019-06-11T20:26:55.207Z,28.98
2019-06-11T20:29:23.155Z,27.70
2019-06-11T20:31:55.127Z,28.30
2019-06-11T20:34:23.771Z,30.57
2019-06-11T20:36:50.570Z,27.67
2019-06-11T20:39:20.375Z,27.30
2019-06-11T20:41:48.017Z,28.62
2019-06-11T20:44:15.892Z,29.50
2019-06-11T20:46:43.853Z,27.00
2019-06-11T20:49:11.714Z,26.45
2019-06-11T20:51:39.953Z,26.40
2019-06-11T20:54:10.451Z,29.63
2019-06-11T20:56:38.174Z,28.87
2019-06-11T20:59:06.346Z,25.97
2019-06-11T21:01:35.283Z,26.93
2019-06-11T21:04:04.256Z,27.32
2019-06-11T21:06:32.551Z,27.90
2019-06-11T21:09:01.140Z,28.62
2019-06-11T21:11:29.442Z,27.87
2019-06-11T21:13:57.406Z,28.95
2019-06-11T21:16:25.457Z,28.10
2019-06-11T21:18:54.820Z,25.65
2019-06-11T21:21:24.417Z,26.50
2019-06-11T21:23:53.555Z,24.18
2019-06-11T21:26:21.835Z,23.75
2019-06-11T21:28:49.890Z,26.42
2019-06-11T21:31:20.233Z,25.43
2019-06-11T21:33:50.959Z,30.20
2019-06-11T21:36:20.188Z,24.80
2019-06-11T21:38:50.691Z,25.70
2019-06-11T21:41:20.370Z,24.35
2019-06-11T21:43:48.469Z,24.37
2019-06-11T21:46:17.395Z,26.00
2019-06-11T21:49:07.423Z,25.27
2019-06-11T21:51:37.282Z,26.75
2019-06-11T21:54:05.505Z,23.73
2019-06-11T21:56:33.758Z,24.57
2019-06-11T21:59:03.597Z,24.07
2019-06-11T22:01:33.335Z,25.05
2019-06-11T22:04:01.818Z,24.18
2019-06-11T22:06:30.510Z,23.75
2019-06-11T22:09:00.671Z,26.25
2019-06-11T22:11:30.461Z,27.42
2019-06-11T22:14:00.432Z,26.12
2019-06-11T22:16:28.208Z,25.85
2019-06-11T22:19:15.970Z,27.30
2019-06-11T22:21:30.033Z,26.95
2019-06-11T22:24:00.969Z,26.35
2019-06-11T22:26:30.143Z,26.80
2019-06-11T22:29:00.413Z,25.90
2019-06-11T22:31:30.861Z,25.45
2019-06-11T22:34:00.011Z,26.20
2019-06-11T22:36:31.741Z,26.45
2019-06-11T22:39:00.441Z,25.05
2019-06-11T22:41:30.674Z,24.70
2019-06-11T22:43:58.324Z,25.12
2019-06-11T22:46:26.782Z,24.75
2019-06-11T22:48:56.975Z,23.62
2019-06-11T22:51:27.313Z,24.20
2019-06-11T22:53:55.593Z,27.13
2019-06-11T22:56:23.507Z,26.15
2019-06-11T22:58:52.370Z,28.65
2019-06-11T23:01:22.694Z,27.30
2019-06-11T23:03:55.703Z,25.48
2019-06-11T23:06:23.578Z,24.92
2019-06-11T23:08:52.812Z,23.85
2019-06-11T23:11:21.533Z,28.05
2019-06-11T23:13:51.624Z,25.77
2019-06-11T23:16:25.866Z,26.27
2019-06-11T23:18:53.789Z,26.65
2019-06-11T23:21:21.763Z,26.85
2019-06-11T23:23:50.941Z,25.82
2019-06-11T23:26:20.637Z,25.75
2019-06-11T23:28:51.539Z,25.15
2019-06-11T23:31:21.010Z,28.15
2019-06-11T23:33:50.839Z,25.88
2019-06-11T23:36:21.364Z,29.20
2019-06-11T23:38:54.093Z,26.82
2019-06-11T23:41:21.209Z,27.42
2019-06-11T23:43:50.624Z,28.23
2019-06-11T23:46:20.439Z,27.17
2019-06-11T23:48:55.623Z,26.57
2019-06-11T23:51:24.051Z,28.15
2019-06-11T23:53:54.530Z,27.02
2019-06-11T23:56:23.665Z,28.17
2019-06-11T23:58:51.583Z,29.42
